createdAt,value
2023-01-25T00:01:53.147Z,0.16
2023-01-25T00:04:22.036Z,0.21
2023-01-25T00:06:50.436Z,0.15
2023-01-25T00:09:19.559Z,0.28
2023-01-25T00:11:48.097Z,0.20
2023-01-25T00:14:18.267Z,0.01
2023-01-25T00:16:47.007Z,-0.09
2023-01-25T00:19:16.728Z,-0.14
2023-01-25T00:21:45.118Z,-0.08
2023-01-25T00:24:14.452Z,0.05
2023-01-25T00:26:45.120Z,0.10
2023-01-25T00:29:14.386Z,0.14
2023-01-25T00:35:34.038Z,0.09
2023-01-25T00:38:04.723Z,0.16
2023-01-25T00:40:33.644Z,0.10
2023-01-25T00:43:02.260Z,0.15
2023-01-25T00:45:30.923Z,0.10
2023-01-25T00:47:59.649Z,0.10
2023-01-25T00:50:28.135Z,0.36
2023-01-25T00:52:58.245Z,0.30
2023-01-25T00:55:27.125Z,0.18
2023-01-25T00:57:55.418Z,0.23
2023-01-25T01:00:23.751Z,0.01
2023-01-25T01:02:52.317Z,-0.09
2023-01-25T01:05:20.673Z,-0.11
2023-01-25T01:07:51.132Z,-0.04
2023-01-25T01:10:20.897Z,-0.09
2023-01-25T01:12:49.101Z,0.04
2023-01-25T01:15:17.586Z,0.06
2023-01-25T01:17:45.675Z,-0.08
2023-01-25T01:20:14.862Z,0.07
2023-01-25T01:22:43.398Z,0.04
2023-01-25T01:25:13.496Z,-0.03
2023-01-25T01:27:43.380Z,0.00
2023-01-25T01:30:13.730Z,-0.21
2023-01-25T01:32:42.073Z,-0.24
2023-01-25T01:35:11.097Z,-0.22
2023-01-25T01:37:43.706Z,-0.20
2023-01-25T01:40:16.574Z,-0.13
2023-01-25T01:43:00.198Z,-0.05
2023-01-25T01:46:00.296Z,-0.03
2023-01-25T01:48:35.985Z,-0.10
2023-01-25T01:51:13.257Z,-0.10
2023-01-25T01:53:44.715Z,-0.13
2023-01-25T01:56:18.346Z,-0.09
2023-01-25T01:58:51.498Z,-0.09
2023-01-25T02:01:21.560Z,-0.22
2023-01-25T02:03:51.842Z,-0.20
2023-01-25T02:06:27.900Z,-0.06
2023-01-25T02:08:56.887Z,-0.06
2023-01-25T02:11:28.076Z,-0.06
2023-01-25T02:13:59.760Z,-0.05
2023-01-25T02:16:29.770Z,-0.07
2023-01-25T02:19:02.693Z,-0.09
2023-01-25T02:21:40.092Z,-0.04
2023-01-25T02:24:14.785Z,-0.05
2023-01-25T02:26:45.940Z,-0.16
2023-01-25T02:29:15.582Z,-0.34
2023-01-25T02:31:46.242Z,-0.24
2023-01-25T02:34:14.787Z,-0.33
2023-01-25T02:36:43.366Z,-0.25
2023-01-25T02:39:20.318Z,-0.22
2023-01-25T02:41:51.590Z,-0.30
2023-01-25T02:44:25.227Z,-0.22
2023-01-25T02:46:54.222Z,-0.21
2023-01-25T02:49:22.609Z,-0.09
2023-01-25T02:51:52.576Z,-0.11
2023-01-25T02:54:22.243Z,-0.26
2023-01-25T02:56:52.057Z,-0.29
2023-01-25T02:59:20.554Z,-0.36
2023-01-25T03:01:49.553Z,-0.43
2023-01-25T03:04:18.639Z,-0.33
2023-01-25T03:06:47.248Z,-0.40
2023-01-25T03:09:15.401Z,-0.42
2023-01-25T03:11:43.958Z,-0.35
2023-01-25T03:14:13.814Z,-0.44
2023-01-25T03:16:42.408Z,-0.37
2023-01-25T03:19:11.513Z,-0.37
2023-01-25T03:21:42.543Z,-0.33
2023-01-25T03:24:12.161Z,-0.30
2023-01-25T03:26:54.239Z,-0.38
2023-01-25T03:29:24.068Z,-0.26
2023-01-25T03:31:52.763Z,-0.28
2023-01-25T03:34:21.597Z,-0.20
2023-01-25T03:36:50.149Z,-0.22
2023-01-25T03:39:18.440Z,-0.14
2023-01-25T03:41:46.779Z,-0.18
2023-01-25T03:44:15.204Z,-0.21
2023-01-25T03:46:45.279Z,-0.09
2023-01-25T03:49:14.074Z,-0.08
2023-01-25T03:51:42.702Z,-0.14
2023-01-25T03:54:11.468Z,-0.17
2023-01-25T03:56:40.800Z,-0.10
2023-01-25T03:59:09.577Z,-0.05
2023-01-25T04:01:38.396Z,-0.10
2023-01-25T04:04:08.622Z,-0.10
2023-01-25T04:06:37.287Z,-0.22
2023-01-25T04:09:07.398Z,-0.22
2023-01-25T04:11:35.977Z,-0.31
2023-01-25T04:14:04.461Z,-0.28
2023-01-25T04:16:33.225Z,-0.25
2023-01-25T04:19:02.886Z,-0.21
2023-01-25T04:21:33.017Z,-0.33
2023-01-25T04:24:01.534Z,-0.43
2023-01-25T04:26:34.357Z,-0.46
2023-01-25T04:29:02.995Z,-0.56
2023-01-25T04:31:31.569Z,-0.42
2023-01-25T04:34:00.658Z,-0.38
2023-01-25T04:36:29.271Z,-0.43
2023-01-25T04:38:59.345Z,-0.46
2023-01-25T04:41:29.389Z,-0.34
2023-01-25T04:43:57.752Z,-0.35
2023-01-25T04:46:26.244Z,-0.24
2023-01-25T04:48:55.238Z,-0.28
2023-01-25T04:51:23.772Z,-0.27
2023-01-25T04:53:52.408Z,-0.22
2023-01-25T04:56:22.440Z,-0.29
2023-01-25T04:58:52.673Z,-0.38
2023-01-25T05:01:21.160Z,-0.31
2023-01-25T05:03:49.783Z,-0.38
2023-01-25T05:06:20.269Z,-0.49
2023-01-25T05:08:48.395Z,-0.43
2023-01-25T05:11:16.965Z,-0.46
2023-01-25T05:13:46.877Z,-0.48
2023-01-25T05:16:15.311Z,-0.38
2023-01-25T05:18:48.913Z,-0.39
2023-01-25T05:21:31.794Z,-0.38
2023-01-25T05:24:00.685Z,-0.37
2023-01-25T05:26:46.872Z,-0.30
2023-01-25T05:29:16.759Z,-0.39
2023-01-25T05:31:45.313Z,-0.31
2023-01-25T05:34:13.831Z,-0.31
2023-01-25T05:36:43.754Z,-0.36
2023-01-25T05:39:12.136Z,-0.37
2023-01-25T05:41:40.942Z,-0.32
2023-01-25T05:44:09.619Z,-0.46
2023-01-25T05:46:39.547Z,-0.44
2023-01-25T05:49:08.254Z,-0.29
2023-01-25T05:51:38.166Z,-0.35
2023-01-25T05:54:07.047Z,-0.41
2023-01-25T05:56:35.779Z,-0.40
2023-01-25T05:59:04.211Z,-0.34
2023-01-25T06:01:32.599Z,-0.36
2023-01-25T06:04:02.359Z,-0.48
2023-01-25T06:06:31.657Z,-0.48
2023-01-25T06:09:00.447Z,-0.59
2023-01-25T06:11:29.417Z,-0.72
2023-01-25T06:13:58.348Z,-0.67
2023-01-25T06:16:27.921Z,-0.59
2023-01-25T06:18:56.448Z,-0.64
2023-01-25T06:21:26.627Z,-0.64
2023-01-25T06:23:55.871Z,-0.65
2023-01-25T06:26:24.342Z,-0.61
2023-01-25T06:28:53.573Z,-0.61
2023-01-25T06:31:23.791Z,-0.70
2023-01-25T06:33:53.261Z,-0.48
2023-01-25T06:36:23.491Z,-0.46
2023-01-25T06:38:54.458Z,-0.44
2023-01-25T06:41:23.623Z,-0.40
2023-01-25T06:43:53.330Z,-0.39
2023-01-25T06:46:22.241Z,-0.44
2023-01-25T06:48:50.724Z,-0.28
2023-01-25T06:51:20.692Z,-0.30
2023-01-25T06:53:49.373Z,-0.37
2023-01-25T06:56:22.001Z,-0.47
2023-01-25T06:58:50.609Z,-0.55
2023-01-25T07:01:20.961Z,-0.35
2023-01-25T07:03:53.916Z,-0.35
2023-01-25T07:06:23.241Z,-0.36
2023-01-25T07:08:52.527Z,-0.38
2023-01-25T07:11:22.661Z,-0.32
2023-01-25T07:13:51.294Z,-0.27
2023-01-25T07:16:22.048Z,-0.21
2023-01-25T07:18:50.665Z,-0.33
2023-01-25T07:21:21.633Z,-0.36
2023-01-25T07:23:50.759Z,-0.32
2023-01-25T07:26:22.771Z,-0.40
2023-01-25T07:28:51.984Z,-0.46
2023-01-25T07:31:22.155Z,-0.52
2023-01-25T07:33:51.611Z,-0.51
2023-01-25T07:36:20.595Z,-0.66
2023-01-25T07:38:49.553Z,-0.74
2023-01-25T07:41:18.080Z,-0.76
2023-01-25T07:43:48.972Z,-0.81
2023-01-25T07:46:17.822Z,-0.69
2023-01-25T07:48:49.007Z,-0.70
2023-01-25T07:51:24.049Z,-0.78
2023-01-25T07:53:54.340Z,-0.76
2023-01-25T07:56:23.961Z,-0.79
2023-01-25T07:58:55.002Z,-0.78
2023-01-25T08:01:25.700Z,-0.84
2023-01-25T08:03:56.399Z,-0.73
2023-01-25T08:06:27.834Z,-0.57
2023-01-25T08:08:56.703Z,-0.62
2023-01-25T08:11:26.829Z,-0.67
2023-01-25T08:13:57.576Z,-0.73
2023-01-25T08:16:28.355Z,-0.80
2023-01-25T08:18:58.129Z,-0.54
2023-01-25T08:21:30.404Z,-0.48
2023-01-25T08:23:59.952Z,-0.53
2023-01-25T08:26:29.312Z,-0.39
2023-01-25T08:28:59.793Z,-0.49
2023-01-25T08:31:30.538Z,-0.44
2023-01-25T08:33:59.808Z,-0.45
2023-01-25T08:36:29.854Z,-0.50
2023-01-25T08:39:00.044Z,-0.59
2023-01-25T08:41:29.992Z,-0.64
2023-01-25T08:44:00.918Z,-0.67
2023-01-25T08:46:33.311Z,-0.68
2023-01-25T08:49:02.817Z,-0.67
2023-01-25T08:51:32.720Z,-0.67
2023-01-25T08:54:04.269Z,-0.66
2023-01-25T08:56:33.032Z,-0.64
2023-01-25T08:59:03.004Z,-0.66
2023-01-25T09:01:31.595Z,-0.66
2023-01-25T09:04:00.604Z,-0.66
2023-01-25T09:06:28.936Z,-0.52
2023-01-25T09:08:57.854Z,-0.50
2023-01-25T09:11:26.522Z,-0.60
2023-01-25T09:13:55.300Z,-0.62
2023-01-25T09:16:30.886Z,-0.57
2023-01-25T09:19:01.737Z,-0.58
2023-01-25T09:21:31.184Z,-0.43
2023-01-25T09:24:08.361Z,-0.58
2023-01-25T09:26:39.892Z,-0.48
2023-01-25T09:29:09.808Z,-0.55
2023-01-25T09:31:44.025Z,-0.48
2023-01-25T09:34:14.236Z,-0.46
2023-01-25T09:36:42.697Z,-0.53
2023-01-25T09:39:20.103Z,-0.59
2023-01-25T09:42:14.012Z,-0.42
2023-01-25T09:45:17.556Z,-0.49
2023-01-25T09:47:56.120Z,-0.60
2023-01-25T09:50:35.219Z,-0.56
2023-01-25T09:53:23.191Z,-0.58
2023-01-25T09:55:54.595Z,-0.68
2023-01-25T09:58:29.423Z,-0.57
2023-01-25T10:01:15.031Z,-0.61
2023-01-25T10:03:53.952Z,-0.59
2023-01-25T10:06:30.423Z,-0.53
2023-01-25T10:09:08.805Z,-0.58
2023-01-25T10:11:39.797Z,-0.52
2023-01-25T10:14:15.055Z,-0.51
2023-01-25T10:17:01.227Z,-0.37
2023-01-25T10:19:41.166Z,-0.24
2023-01-25T10:22:15.223Z,-0.25
2023-01-25T10:25:03.750Z,-0.02
2023-01-25T10:27:41.157Z,-0.13
2023-01-25T10:30:24.971Z,-0.02
2023-01-25T10:32:56.399Z,-0.04
2023-01-25T10:35:36.127Z,-0.07
2023-01-25T10:38:13.175Z,-0.09
2023-01-25T10:40:48.592Z,-0.10
2023-01-25T10:43:21.091Z,0.08
2023-01-25T10:45:50.582Z,-0.11
2023-01-25T10:48:22.716Z,0.00
2023-01-25T10:50:55.055Z,0.20
2023-01-25T10:53:26.803Z,0.27
2023-01-25T10:56:27.140Z,0.20
2023-01-25T10:59:10.243Z,0.25
2023-01-25T11:01:39.239Z,0.26
2023-01-25T11:04:35.314Z,-0.02
2023-01-25T11:07:09.425Z,-0.04
2023-01-25T11:09:40.656Z,0.06
2023-01-25T11:12:20.541Z,0.25
2023-01-25T11:14:56.625Z,0.38
2023-01-25T11:17:30.338Z,0.28
2023-01-25T11:20:22.573Z,0.10
2023-01-25T11:22:54.297Z,0.13
2023-01-25T11:25:32.590Z,0.10
2023-01-25T11:28:20.054Z,-0.21
2023-01-25T11:30:49.792Z,-0.15
2023-01-25T11:33:20.685Z,-0.07
2023-01-25T11:36:15.035Z,-0.16
2023-01-25T11:38:59.034Z,-0.35
2023-01-25T11:41:38.242Z,-0.18
2023-01-25T11:44:39.198Z,-0.05
2023-01-25T11:47:19.512Z,-0.14
2023-01-25T11:50:02.657Z,0.02
2023-01-25T11:52:40.704Z,0.06
2023-01-25T11:55:25.347Z,0.04
2023-01-25T11:58:18.531Z,0.21
2023-01-25T12:01:06.763Z,0.11
2023-01-25T12:04:21.008Z,0.21
2023-01-25T12:07:00.433Z,0.26
2023-01-25T12:09:46.968Z,0.09
2023-01-25T12:12:32.335Z,0.08
2023-01-25T12:15:26.560Z,-0.29
2023-01-25T12:18:23.956Z,-0.13
2023-01-25T12:21:07.836Z,-0.26
2023-01-25T12:23:54.269Z,-0.38
2023-01-25T12:26:28.161Z,-0.36
2023-01-25T12:29:08.105Z,-0.33
2023-01-25T12:31:44.794Z,-0.33
2023-01-25T12:34:19.597Z,-0.20
2023-01-25T12:36:49.934Z,-0.15
2023-01-25T12:39:25.597Z,-0.38
2023-01-25T12:41:58.988Z,-0.37
2023-01-25T12:44:33.875Z,-0.49
2023-01-25T12:47:14.983Z,-0.40
2023-01-25T12:49:51.264Z,-0.42
2023-01-25T12:52:30.688Z,-0.45
2023-01-25T12:55:05.409Z,-0.29
2023-01-25T12:57:43.508Z,-0.31
2023-01-25T13:00:22.848Z,-0.35
2023-01-25T13:03:08.667Z,-0.35
2023-01-25T13:05:41.648Z,-0.41
2023-01-25T13:08:31.034Z,-0.45
2023-01-25T13:11:09.183Z,-0.43
2023-01-25T13:13:37.988Z,-0.41
2023-01-25T13:16:43.407Z,-0.33
2023-01-25T13:19:23.359Z,-0.48
2023-01-25T13:21:57.668Z,-0.37
2023-01-25T13:24:29.122Z,-0.54
2023-01-25T13:27:05.498Z,-0.71
2023-01-25T13:30:01.379Z,-0.58
2023-01-25T13:33:04.408Z,-0.61
2023-01-25T13:35:45.075Z,-0.59
2023-01-25T13:38:36.201Z,-0.63
2023-01-25T13:41:22.899Z,-0.51
2023-01-25T13:44:10.060Z,-0.44
2023-01-25T13:46:38.807Z,-0.54
2023-01-25T13:49:20.957Z,-0.57
2023-01-25T13:51:50.011Z,-0.83
2023-01-25T13:54:19.150Z,-0.81
2023-01-25T13:56:48.510Z,-0.71
2023-01-25T13:59:28.224Z,-0.57
2023-01-25T14:01:57.459Z,-0.54
2023-01-25T14:04:27.520Z,-0.58
2023-01-25T14:06:59.711Z,-0.57
2023-01-25T14:09:28.555Z,-0.71
2023-01-25T14:12:00.167Z,-0.86
2023-01-25T14:14:30.310Z,-0.88
2023-01-25T14:17:16.341Z,-0.71
2023-01-25T14:19:50.178Z,-0.57
2023-01-25T14:22:23.852Z,-0.72
2023-01-25T14:25:12.471Z,-0.53
2023-01-25T14:27:45.482Z,-0.69
2023-01-25T14:30:37.888Z,-0.71
2023-01-25T14:33:21.787Z,-0.59
2023-01-25T14:35:56.471Z,-0.61
2023-01-25T14:38:31.321Z,-0.64
2023-01-25T14:41:04.623Z,-0.47
2023-01-25T14:43:34.556Z,-0.54
2023-01-25T14:46:03.027Z,-0.89
2023-01-25T14:48:39.075Z,-0.73
2023-01-25T14:51:15.777Z,-0.67
2023-01-25T14:53:47.943Z,-0.85
2023-01-25T14:56:28.498Z,-0.67
2023-01-25T14:59:00.343Z,-0.81
2023-01-25T15:01:37.574Z,-0.78
2023-01-25T15:04:11.858Z,-0.64
2023-01-25T15:06:50.307Z,-0.61
2023-01-25T15:09:41.678Z,-0.67
2023-01-25T15:12:29.323Z,-0.51
2023-01-25T15:15:00.002Z,-0.55
2023-01-25T15:17:43.300Z,-0.34
2023-01-25T15:20:39.649Z,-0.31
2023-01-25T15:23:24.117Z,-0.34
2023-01-25T15:25:57.846Z,-0.40
2023-01-25T15:28:28.783Z,-0.39
2023-01-25T15:31:00.120Z,-0.52
2023-01-25T15:33:32.611Z,-0.53
2023-01-25T15:36:01.299Z,-0.43
2023-01-25T15:38:31.817Z,-0.39
2023-01-25T15:41:01.972Z,-0.39
2023-01-25T15:43:30.870Z,-0.50
2023-01-25T15:46:01.767Z,-0.38
2023-01-25T15:48:32.471Z,-0.38
2023-01-25T15:51:01.513Z,-0.35
2023-01-25T15:53:31.403Z,-0.30
2023-01-25T15:56:02.887Z,-0.34
2023-01-25T15:58:35.261Z,-0.35
2023-01-25T16:01:04.745Z,-0.57
2023-01-25T16:03:34.504Z,-0.39
2023-01-25T16:06:04.419Z,-0.50
2023-01-25T16:08:35.600Z,-0.46
2023-01-25T16:11:04.068Z,-0.63
2023-01-25T16:13:33.241Z,-0.62
2023-01-25T16:16:06.662Z,-0.53
2023-01-25T16:18:35.031Z,-0.68
2023-01-25T16:21:07.762Z,-0.66
2023-01-25T16:23:38.327Z,-0.73
2023-01-25T16:26:12.277Z,-0.65
2023-01-25T16:28:40.646Z,-0.60
2023-01-25T16:31:19.559Z,-0.55
2023-01-25T16:33:59.265Z,-0.43
2023-01-25T16:36:30.823Z,-0.55
2023-01-25T16:39:11.420Z,-0.60
2023-01-25T16:41:39.813Z,-0.51
2023-01-25T16:44:08.507Z,-0.61
2023-01-25T16:46:37.026Z,-0.55
2023-01-25T16:49:07.157Z,-0.48
2023-01-25T16:51:35.488Z,-0.63
2023-01-25T16:54:05.470Z,-0.66
2023-01-25T16:56:35.346Z,-0.65
2023-01-25T16:59:06.688Z,-0.63
2023-01-25T17:01:35.639Z,-0.67
2023-01-25T17:04:04.465Z,-0.83
2023-01-25T17:06:35.855Z,-0.87
2023-01-25T17:09:21.511Z,-0.77
2023-01-25T17:11:51.665Z,-0.62
2023-01-25T17:14:20.943Z,-0.68
2023-01-25T17:16:52.243Z,-0.58
2023-01-25T17:19:22.240Z,-0.57
2023-01-25T17:21:51.321Z,-0.62
2023-01-25T17:24:22.789Z,-0.55
2023-01-25T17:26:57.839Z,-0.55
2023-01-25T17:29:26.817Z,-0.52
2023-01-25T17:31:55.245Z,-0.48
2023-01-25T17:34:24.227Z,-0.52
2023-01-25T17:36:54.170Z,-0.58
2023-01-25T17:39:25.220Z,-0.63
2023-01-25T17:41:53.987Z,-0.75
2023-01-25T17:44:25.203Z,-0.82
2023-01-25T17:46:57.339Z,-0.74
2023-01-25T17:49:28.884Z,-0.78
2023-01-25T17:51:57.407Z,-0.66
2023-01-25T17:54:28.389Z,-0.57
2023-01-25T17:56:57.552Z,-0.49
2023-01-25T17:59:26.437Z,-0.81
2023-01-25T18:01:56.070Z,-0.70
2023-01-25T18:04:26.361Z,-0.62
2023-01-25T18:06:54.855Z,-0.61
2023-01-25T18:09:24.221Z,-0.55
2023-01-25T18:11:54.533Z,-0.50
2023-01-25T18:14:23.748Z,-0.52
2023-01-25T18:16:52.158Z,-0.57
2023-01-25T18:19:21.582Z,-0.52
2023-01-25T18:21:50.319Z,-0.55
2023-01-25T18:24:36.916Z,-0.65
2023-01-25T18:27:12.323Z,-0.68
2023-01-25T18:29:50.879Z,-0.67
2023-01-25T18:32:19.507Z,-0.63
2023-01-25T18:34:49.030Z,-0.57
2023-01-25T18:37:22.798Z,-0.64
2023-01-25T18:39:55.007Z,-0.63
2023-01-25T18:42:29.030Z,-0.61
2023-01-25T18:44:57.726Z,-0.60
2023-01-25T18:47:26.693Z,-0.55
2023-01-25T18:49:56.105Z,-0.57
2023-01-25T18:52:26.125Z,-0.59
2023-01-25T18:54:54.963Z,-0.63
2023-01-25T18:57:23.617Z,-0.78
2023-01-25T18:59:54.057Z,-0.76
2023-01-25T19:02:24.054Z,-0.80
2023-01-25T19:04:53.154Z,-0.80
2023-01-25T19:07:21.809Z,-0.96
2023-01-25T19:09:50.759Z,-0.90
2023-01-25T19:12:19.241Z,-0.95
2023-01-25T19:14:48.183Z,-0.92
2023-01-25T19:17:20.158Z,-0.80
2023-01-25T19:19:48.933Z,-0.87
2023-01-25T19:22:17.891Z,-0.74
2023-01-25T19:24:46.831Z,-0.72
2023-01-25T19:27:15.309Z,-0.80
2023-01-25T19:29:43.834Z,-0.82
2023-01-25T19:32:13.460Z,-0.68
2023-01-25T19:34:44.462Z,-0.64
2023-01-25T19:37:14.694Z,-0.68
2023-01-25T19:39:43.733Z,-0.49
2023-01-25T19:42:18.577Z,-0.55
2023-01-25T19:44:49.107Z,-0.60
2023-01-25T19:47:17.897Z,-0.55
2023-01-25T19:49:48.925Z,-0.59
2023-01-25T19:52:17.515Z,-0.61
2023-01-25T19:54:47.129Z,-0.59
2023-01-25T19:57:18.377Z,-0.55
2023-01-25T19:59:47.316Z,-0.59
2023-01-25T20:02:20.712Z,-0.66
2023-01-25T20:04:52.376Z,-0.85
2023-01-25T20:07:26.334Z,-0.88
2023-01-25T20:09:55.509Z,-0.86
2023-01-25T20:12:26.134Z,-0.87
2023-01-25T20:14:55.904Z,-0.82
2023-01-25T20:17:25.386Z,-0.93
2023-01-25T20:19:56.040Z,-0.82
2023-01-25T20:22:26.278Z,-0.77
2023-01-25T20:24:56.682Z,-0.77
2023-01-25T20:27:24.966Z,-0.80
2023-01-25T20:29:54.010Z,-0.74
2023-01-25T20:32:32.745Z,-0.84
2023-01-25T20:35:06.489Z,-0.70
2023-01-25T20:37:34.902Z,-1.05
2023-01-25T20:40:03.581Z,-0.93
2023-01-25T20:42:32.479Z,-0.95
2023-01-25T20:45:01.687Z,-0.96
2023-01-25T20:47:30.231Z,-0.89
2023-01-25T20:49:59.509Z,-1.00
2023-01-25T20:52:29.599Z,-0.97
2023-01-25T20:54:58.734Z,-1.00
2023-01-25T20:57:27.621Z,-1.00
2023-01-25T20:59:56.681Z,-1.06
2023-01-25T21:02:28.859Z,-1.00
2023-01-25T21:04:57.935Z,-0.98
2023-01-25T21:07:27.340Z,-1.12
2023-01-25T21:09:59.280Z,-1.04
2023-01-25T21:12:28.214Z,-1.10
2023-01-25T21:14:57.833Z,-1.00
2023-01-25T21:17:26.705Z,-1.05
2023-01-25T21:19:58.853Z,-0.99
2023-01-25T21:22:30.564Z,-1.00
2023-01-25T21:25:00.879Z,-1.00
2023-01-25T21:27:31.658Z,-0.99
2023-01-25T21:30:00.398Z,-1.09
2023-01-25T21:32:30.440Z,-0.90
2023-01-25T21:34:59.557Z,-0.85
2023-01-25T21:37:28.034Z,-0.80
2023-01-25T21:39:56.824Z,-0.86
2023-01-25T21:42:27.062Z,-0.82
2023-01-25T21:45:12.852Z,-0.89
2023-01-25T21:47:43.681Z,-0.96
2023-01-25T21:50:30.377Z,-1.10
2023-01-25T21:52:59.246Z,-1.08
2023-01-25T21:55:29.268Z,-1.11
2023-01-25T21:57:59.655Z,-1.17
2023-01-25T22:00:28.887Z,-1.16
2023-01-25T22:02:58.050Z,-1.16
2023-01-25T22:05:26.888Z,-1.25
2023-01-25T22:07:55.616Z,-1.23
2023-01-25T22:10:24.583Z,-1.13
2023-01-25T22:12:53.138Z,-1.23
2023-01-25T22:15:24.398Z,-1.18
2023-01-25T22:17:53.077Z,-1.19
2023-01-25T22:20:22.770Z,-1.20
2023-01-25T22:22:52.950Z,-1.21
2023-01-25T22:25:21.584Z,-1.19
2023-01-25T22:27:56.808Z,-1.18
2023-01-25T22:30:26.684Z,-1.26
2023-01-25T22:32:55.323Z,-1.19
2023-01-25T22:35:23.550Z,-1.31
2023-01-25T22:37:53.217Z,-1.32
2023-01-25T22:40:21.717Z,-1.25
2023-01-25T22:42:50.198Z,-1.23
2023-01-25T22:45:18.576Z,-1.04
2023-01-25T22:47:48.877Z,-0.99
2023-01-25T22:50:17.902Z,-0.97
2023-01-25T22:52:46.121Z,-1.20
2023-01-25T22:55:14.539Z,-1.01
2023-01-25T22:57:43.555Z,-0.99
2023-01-25T23:00:13.926Z,-1.12
2023-01-25T23:02:42.292Z,-1.15
2023-01-25T23:05:12.727Z,-1.15
2023-01-25T23:07:41.082Z,-1.22
2023-01-25T23:10:21.858Z,-1.19
2023-01-25T23:12:53.399Z,-1.10
2023-01-25T23:15:22.708Z,-1.14
2023-01-25T23:18:08.590Z,-1.19
2023-01-25T23:20:38.711Z,-1.14
2023-01-25T23:23:07.418Z,-1.17
2023-01-25T23:25:36.303Z,-1.11
2023-01-25T23:28:05.027Z,-1.09
2023-01-25T23:30:34.155Z,-1.16
2023-01-25T23:33:02.779Z,-1.15
2023-01-25T23:35:33.523Z,-1.09
2023-01-25T23:38:03.784Z,-1.15
2023-01-25T23:40:32.926Z,-1.28
2023-01-25T23:43:01.833Z,-1.26
2023-01-25T23:45:30.371Z,-1.23
2023-01-25T23:47:59.023Z,-1.25
2023-01-25T23:50:27.707Z,-1.28
2023-01-25T23:52:56.398Z,-1.21
2023-01-25T23:55:27.033Z,-1.17
2023-01-25T23:57:55.614Z,-1.22
